AirSardinia Virtual Manager

AirSardinia Virtual La prima compagnia sarda di volo simulato




 METAR AND TAF INFORMATION
METAR FOR UTDD
ADDS - METARS form results

(1328 UTC 18 August 2019)
Data provider http://aviationweather.gov/metar/data/
 
METAR text: UTDD 181300Z 00000MPS 9999 NSC 30/00 Q1012 R09/D NOSIG RMK QFE691/0921
Conditions at: UTDD (DUSHANBE , TJ) observed 1300 UTC 18 August 2019
Temperature: 30.0°C (86°F)
Dewpoint: 0.0°C (32°F) [RH = 14%]
Pressure (altimeter): 29.88 inches Hg (1012.0 mb)
Winds: calm
Visibility: 6 or more miles (10+ km)
Ceiling: at least 12,000 feet AGL
Clouds: sky clear below 12,000 feet AGL
Weather: no significant weather observed at this time

METAR text: UTDD 181230Z VRB01MPS 9999 NSC 30/01 Q1012 R09/D NOSIG RMK QFE691/0921
Conditions at: UTDD (DUSHANBE , TJ) observed 1230 UTC 18 August 2019
Temperature: 30.0°C (86°F)
Dewpoint: 1.0°C (34°F) [RH = 15%]
Pressure (altimeter): 29.88 inches Hg (1012.0 mb)
Winds: variable direction winds at 2 MPH (2 knots; 1.0 m/s)
Visibility: 6 or more miles (10+ km)
Ceiling: at least 12,000 feet AGL
Clouds: sky clear below 12,000 feet AGL
Weather: no significant weather observed at this time

Forecast for: UTDD (DUSHANBE , TJ)
Text: TAF UTDD 181200Z 1813/1901 VRB02MPS 6000 FEW066CB SCT130
Forecast period: 1300 UTC 18 August 2019 to 0100 UTC 19 August 2019
Forecast type: FROM: standard forecast or significant change
Winds: variable direction winds at 5 MPH (4 knots; 2.1 m/s)
Visibility: 4 miles (6 km)
Ceiling: at least 12,000 feet AGL
Clouds: few clouds at 6600 feet AGL
scattered clouds at 13000 feet AGL
Weather: no significant weather forecast for this period
Text: TEMPO 1813/1819 27007MPS
Forecast period: 1300 to 1900 UTC 18 August 2019
Forecast type: TEMPORARY: The following changes expected for less than half the time period
Winds: from the W (270 degrees) at 16 MPH (14 knots; 7.2 m/s)
Visibility: missing
Ceiling: unknown
Clouds: missing
Weather: no significant weather forecast for this period

 AIRPORT MAP

 RUNWAY INFORMATION
Runway 09 Runway length 10170 ft Runway width 147 ft
Runway elevation 2575 ft Runway displaced threshold 0 ft Runway heading 90
Runway 27 Runway length 10170 ft Runway width 147 ft
Runway elevation 2543 ft Runway displaced threshold 1335 ft Runway heading 270

 AIRPORT FREQUENCIES
Type APP Name APP Frequency 127.1 MHz
Type ATIS Name ATIS Frequency 126.2 MHz
Type GND Name GND Frequency 121.7 MHz
Type TWR Name TWR Frequency 119.2 MHz

 AIRPORT NEAR NAVIGATION AIDS
Type VOR-DME Name Dushanbe Frequency 113.6 MHz
Type NDB Name Dushanbe Frequency 372 kHz
Type NDB Name Dushanbe Frequency 420 kHz